sensor_id;sensor_type;location;lat;lon;timestamp;temperature;humidity
9209;DHT22;4639;48.862;9.188;2023-02-01T00:01:47;5.20;99.90
9209;DHT22;4639;48.862;9.188;2023-02-01T00:04:14;5.20;99.90
9209;DHT22;4639;48.862;9.188;2023-02-01T00:06:39;5.20;99.90
9209;DHT22;4639;48.862;9.188;2023-02-01T00:09:08;5.10;99.90
9209;DHT22;4639;48.862;9.188;2023-02-01T00:11:34;5.10;99.90
9209;DHT22;4639;48.862;9.188;2023-02-01T00:13:59;5.10;99.90
9209;DHT22;4639;48.862;9.188;2023-02-01T00:16:27;5.10;99.90
9209;DHT22;4639;48.862;9.188;2023-02-01T00:19:01;5.00;99.90
9209;DHT22;4639;48.862;9.188;2023-02-01T00:21:27;5.20;99.90
9209;DHT22;4639;48.862;9.188;2023-02-01T00:23:53;5.10;99.90
9209;DHT22;4639;48.862;9.188;2023-02-01T00:26:23;5.00;99.90
9209;DHT22;4639;48.862;9.188;2023-02-01T00:28:53;4.90;99.90
9209;DHT22;4639;48.862;9.188;2023-02-01T00:31:25;5.00;99.90
9209;DHT22;4639;48.862;9.188;2023-02-01T00:33:50;5.00;99.90
9209;DHT22;4639;48.862;9.188;2023-02-01T00:36:16;5.00;99.90
9209;DHT22;4639;48.862;9.188;2023-02-01T00:38:42;5.00;99.90
9209;DHT22;4639;48.862;9.188;2023-02-01T00:41:13;5.00;99.90
9209;DHT22;4639;48.862;9.188;2023-02-01T00:43:41;5.00;99.90
9209;DHT22;4639;48.862;9.188;2023-02-01T00:46:06;4.90;99.90
9209;DHT22;4639;48.862;9.188;2023-02-01T00:48:32;4.90;99.90
9209;DHT22;4639;48.862;9.188;2023-02-01T00:51:03;5.00;99.90
9209;DHT22;4639;48.862;9.188;2023-02-01T00:53:29;5.00;99.90
9209;DHT22;4639;48.862;9.188;2023-02-01T00:55:55;5.00;99.90
9209;DHT22;4639;48.862;9.188;2023-02-01T00:58:22;5.00;99.90
9209;DHT22;4639;48.862;9.188;2023-02-01T01:00:49;5.00;99.90
9209;DHT22;4639;48.862;9.188;2023-02-01T01:03:26;4.90;99.90
9209;DHT22;4639;48.862;9.188;2023-02-01T01:05:51;4.90;99.90
9209;DHT22;4639;48.862;9.188;2023-02-01T01:08:24;4.90;99.90
9209;DHT22;4639;48.862;9.188;2023-02-01T01:10:50;4.90;99.90
9209;DHT22;4639;48.862;9.188;2023-02-01T01:13:15;4.80;99.90
9209;DHT22;4639;48.862;9.188;2023-02-01T01:15:41;4.80;99.90
9209;DHT22;4639;48.862;9.188;2023-02-01T01:18:08;4.80;99.90
9209;DHT22;4639;48.862;9.188;2023-02-01T01:20:35;4.80;99.90
9209;DHT22;4639;48.862;9.188;2023-02-01T01:23:02;4.80;99.90
9209;DHT22;4639;48.862;9.188;2023-02-01T01:25:27;4.80;99.90
9209;DHT22;4639;48.862;9.188;2023-02-01T01:27:53;4.90;99.90
9209;DHT22;4639;48.862;9.188;2023-02-01T01:30:19;4.90;99.90
9209;DHT22;4639;48.862;9.188;2023-02-01T01:32:44;4.90;99.90
9209;DHT22;4639;48.862;9.188;2023-02-01T01:35:10;5.00;99.90
9209;DHT22;4639;48.862;9.188;2023-02-01T01:37:36;5.00;99.90
9209;DHT22;4639;48.862;9.188;2023-02-01T01:40:06;5.00;99.90
9209;DHT22;4639;48.862;9.188;2023-02-01T01:42:39;5.00;99.90
9209;DHT22;4639;48.862;9.188;2023-02-01T01:47:41;5.00;99.90
9209;DHT22;4639;48.862;9.188;2023-02-01T01:50:10;5.10;99.90
9209;DHT22;4639;48.862;9.188;2023-02-01T01:52:41;5.10;99.90
9209;DHT22;4639;48.862;9.188;2023-02-01T01:55:09;5.10;99.90
9209;DHT22;4639;48.862;9.188;2023-02-01T01:57:38;5.20;99.90
9209;DHT22;4639;48.862;9.188;2023-02-01T02:00:07;5.20;99.90
9209;DHT22;4639;48.862;9.188;2023-02-01T02:02:33;5.20;99.90
9209;DHT22;4639;48.862;9.188;2023-02-01T02:05:00;5.30;99.90
9209;DHT22;4639;48.862;9.188;2023-02-01T02:07:31;5.30;99.90
9209;DHT22;4639;48.862;9.188;2023-02-01T02:09:57;5.30;99.90
9209;DHT22;4639;48.862;9.188;2023-02-01T02:12:22;5.30;99.90
9209;DHT22;4639;48.862;9.188;2023-02-01T02:14:49;5.30;99.90
9209;DHT22;4639;48.862;9.188;2023-02-01T02:28:36;5.40;99.90
9209;DHT22;4639;48.862;9.188;2023-02-01T02:36:23;5.40;99.90
9209;DHT22;4639;48.862;9.188;2023-02-01T02:45:34;5.40;99.90
9209;DHT22;4639;48.862;9.188;2023-02-01T02:48:26;5.40;99.90
9209;DHT22;4639;48.862;9.188;2023-02-01T02:51:00;5.40;99.90
9209;DHT22;4639;48.862;9.188;2023-02-01T02:56:38;5.40;99.90
9209;DHT22;4639;48.862;9.188;2023-02-01T02:59:25;5.50;99.90
9209;DHT22;4639;48.862;9.188;2023-02-01T03:02:10;5.50;99.90
9209;DHT22;4639;48.862;9.188;2023-02-01T03:04:55;5.50;99.90
9209;DHT22;4639;48.862;9.188;2023-02-01T03:10:16;5.40;99.90
9209;DHT22;4639;48.862;9.188;2023-02-01T03:12:43;5.50;99.90
9209;DHT22;4639;48.862;9.188;2023-02-01T03:20:55;5.50;99.90
9209;DHT22;4639;48.862;9.188;2023-02-01T03:23:24;5.50;99.90
9209;DHT22;4639;48.862;9.188;2023-02-01T03:25:53;5.40;99.90
9209;DHT22;4639;48.862;9.188;2023-02-01T03:28:23;5.40;99.90
9209;DHT22;4639;48.862;9.188;2023-02-01T03:30:50;5.40;99.90
9209;DHT22;4639;48.862;9.188;2023-02-01T03:33:19;5.30;99.90
9209;DHT22;4639;48.862;9.188;2023-02-01T03:39:05;5.30;99.90
9209;DHT22;4639;48.862;9.188;2023-02-01T03:41:46;5.40;99.90
9209;DHT22;4639;48.862;9.188;2023-02-01T03:44:17;5.40;99.90
9209;DHT22;4639;48.862;9.188;2023-02-01T03:49:41;5.40;99.90
9209;DHT22;4639;48.862;9.188;2023-02-01T03:52:15;5.50;99.90
9209;DHT22;4639;48.862;9.188;2023-02-01T03:54:42;5.50;99.90
9209;DHT22;4639;48.862;9.188;2023-02-01T03:57:14;5.60;99.90
9209;DHT22;4639;48.862;9.188;2023-02-01T03:59:43;5.50;99.90
9209;DHT22;4639;48.862;9.188;2023-02-01T04:02:09;5.60;99.90
9209;DHT22;4639;48.862;9.188;2023-02-01T04:04:36;5.40;99.90
9209;DHT22;4639;48.862;9.188;2023-02-01T04:07:02;5.40;99.90
9209;DHT22;4639;48.862;9.188;2023-02-01T04:09:28;5.40;99.90
9209;DHT22;4639;48.862;9.188;2023-02-01T04:11:54;5.40;99.90
9209;DHT22;4639;48.862;9.188;2023-02-01T04:14:19;5.30;99.90
9209;DHT22;4639;48.862;9.188;2023-02-01T04:16:45;5.30;99.90
9209;DHT22;4639;48.862;9.188;2023-02-01T04:19:11;5.30;99.90
9209;DHT22;4639;48.862;9.188;2023-02-01T04:21:36;5.40;99.90
9209;DHT22;4639;48.862;9.188;2023-02-01T04:24:02;5.30;99.90
9209;DHT22;4639;48.862;9.188;2023-02-01T04:26:30;5.20;99.90
9209;DHT22;4639;48.862;9.188;2023-02-01T04:28:56;5.20;99.90
9209;DHT22;4639;48.862;9.188;2023-02-01T04:31:22;5.30;99.90
9209;DHT22;4639;48.862;9.188;2023-02-01T04:33:54;5.30;99.90
9209;DHT22;4639;48.862;9.188;2023-02-01T04:36:21;5.20;99.90
9209;DHT22;4639;48.862;9.188;2023-02-01T04:38:52;5.30;99.90
9209;DHT22;4639;48.862;9.188;2023-02-01T04:41:19;5.20;99.90
9209;DHT22;4639;48.862;9.188;2023-02-01T04:43:49;5.20;99.90
9209;DHT22;4639;48.862;9.188;2023-02-01T04:46:15;5.20;99.90
9209;DHT22;4639;48.862;9.188;2023-02-01T04:48:41;5.30;99.90
9209;DHT22;4639;48.862;9.188;2023-02-01T04:51:07;5.40;99.90
9209;DHT22;4639;48.862;9.188;2023-02-01T04:53:35;5.40;99.90
9209;DHT22;4639;48.862;9.188;2023-02-01T04:56:02;5.40;99.90
9209;DHT22;4639;48.862;9.188;2023-02-01T04:58:27;5.50;99.90
9209;DHT22;4639;48.862;9.188;2023-02-01T05:00:53;5.50;99.90
9209;DHT22;4639;48.862;9.188;2023-02-01T05:03:18;5.60;99.90
9209;DHT22;4639;48.862;9.188;2023-02-01T05:05:44;5.50;99.90
9209;DHT22;4639;48.862;9.188;2023-02-01T05:08:10;5.50;99.90
9209;DHT22;4639;48.862;9.188;2023-02-01T05:10:35;5.50;99.90
9209;DHT22;4639;48.862;9.188;2023-02-01T05:13:01;5.50;99.90
9209;DHT22;4639;48.862;9.188;2023-02-01T05:15:45;5.50;99.90
9209;DHT22;4639;48.862;9.188;2023-02-01T05:18:11;5.40;99.90
9209;DHT22;4639;48.862;9.188;2023-02-01T05:20:37;5.40;99.90
9209;DHT22;4639;48.862;9.188;2023-02-01T05:23:06;5.50;99.90
9209;DHT22;4639;48.862;9.188;2023-02-01T05:25:34;5.50;99.90
9209;DHT22;4639;48.862;9.188;2023-02-01T05:28:00;5.50;99.90
9209;DHT22;4639;48.862;9.188;2023-02-01T05:30:25;5.50;99.90
9209;DHT22;4639;48.862;9.188;2023-02-01T05:32:52;5.50;99.90
9209;DHT22;4639;48.862;9.188;2023-02-01T05:35:17;5.60;99.90
9209;DHT22;4639;48.862;9.188;2023-02-01T05:37:43;5.60;99.90
9209;DHT22;4639;48.862;9.188;2023-02-01T05:40:09;5.70;99.90
9209;DHT22;4639;48.862;9.188;2023-02-01T05:42:35;5.70;99.90
9209;DHT22;4639;48.862;9.188;2023-02-01T05:45:01;5.70;99.90
9209;DHT22;4639;48.862;9.188;2023-02-01T05:47:26;5.80;99.90
9209;DHT22;4639;48.862;9.188;2023-02-01T05:49:52;5.80;99.90
9209;DHT22;4639;48.862;9.188;2023-02-01T05:52:17;5.70;99.90
9209;DHT22;4639;48.862;9.188;2023-02-01T05:54:47;5.80;99.90
9209;DHT22;4639;48.862;9.188;2023-02-01T05:57:16;5.80;99.90
9209;DHT22;4639;48.862;9.188;2023-02-01T05:59:41;5.80;99.90
9209;DHT22;4639;48.862;9.188;2023-02-01T06:02:10;5.80;99.90
9209;DHT22;4639;48.862;9.188;2023-02-01T06:04:36;5.70;99.90
9209;DHT22;4639;48.862;9.188;2023-02-01T06:07:02;5.70;99.90
9209;DHT22;4639;48.862;9.188;2023-02-01T06:09:27;5.70;99.90
9209;DHT22;4639;48.862;9.188;2023-02-01T06:11:53;5.80;99.90
9209;DHT22;4639;48.862;9.188;2023-02-01T06:14:19;5.80;99.90
9209;DHT22;4639;48.862;9.188;2023-02-01T06:16:45;5.80;99.90
9209;DHT22;4639;48.862;9.188;2023-02-01T06:19:12;5.90;99.90
9209;DHT22;4639;48.862;9.188;2023-02-01T06:21:38;5.90;99.90
9209;DHT22;4639;48.862;9.188;2023-02-01T06:24:03;5.90;99.90
9209;DHT22;4639;48.862;9.188;2023-02-01T06:26:29;5.80;99.90
9209;DHT22;4639;48.862;9.188;2023-02-01T06:28:56;5.80;99.90
9209;DHT22;4639;48.862;9.188;2023-02-01T06:31:22;6.00;99.90
9209;DHT22;4639;48.862;9.188;2023-02-01T06:33:48;5.90;99.90
9209;DHT22;4639;48.862;9.188;2023-02-01T06:36:15;5.90;99.90
9209;DHT22;4639;48.862;9.188;2023-02-01T06:38:41;5.90;99.90
9209;DHT22;4639;48.862;9.188;2023-02-01T06:41:07;5.90;99.90
9209;DHT22;4639;48.862;9.188;2023-02-01T06:43:33;6.00;99.90
9209;DHT22;4639;48.862;9.188;2023-02-01T06:46:03;5.90;99.90
9209;DHT22;4639;48.862;9.188;2023-02-01T06:48:29;6.00;99.90
9209;DHT22;4639;48.862;9.188;2023-02-01T06:50:55;6.00;99.90
9209;DHT22;4639;48.862;9.188;2023-02-01T06:53:21;6.00;99.90
9209;DHT22;4639;48.862;9.188;2023-02-01T06:56:01;6.10;99.90
9209;DHT22;4639;48.862;9.188;2023-02-01T06:58:31;6.10;99.90
9209;DHT22;4639;48.862;9.188;2023-02-01T07:00:58;6.10;99.90
9209;DHT22;4639;48.862;9.188;2023-02-01T07:03:24;6.10;99.90
9209;DHT22;4639;48.862;9.188;2023-02-01T07:05:49;6.10;99.90
9209;DHT22;4639;48.862;9.188;2023-02-01T07:08:15;6.10;99.90
9209;DHT22;4639;48.862;9.188;2023-02-01T07:10:41;6.10;99.90
9209;DHT22;4639;48.862;9.188;2023-02-01T07:13:06;6.10;99.90
9209;DHT22;4639;48.862;9.188;2023-02-01T07:15:32;6.10;99.90
9209;DHT22;4639;48.862;9.188;2023-02-01T07:17:58;6.10;99.90
9209;DHT22;4639;48.862;9.188;2023-02-01T07:20:23;6.20;99.90
9209;DHT22;4639;48.862;9.188;2023-02-01T07:22:53;6.20;99.90
9209;DHT22;4639;48.862;9.188;2023-02-01T07:25:19;6.20;99.90
9209;DHT22;4639;48.862;9.188;2023-02-01T07:27:45;6.10;99.90
9209;DHT22;4639;48.862;9.188;2023-02-01T07:30:12;6.10;99.90
9209;DHT22;4639;48.862;9.188;2023-02-01T07:32:37;6.10;99.90
9209;DHT22;4639;48.862;9.188;2023-02-01T07:35:03;6.20;99.90
9209;DHT22;4639;48.862;9.188;2023-02-01T07:37:29;6.20;99.90
9209;DHT22;4639;48.862;9.188;2023-02-01T07:39:55;6.20;99.90
9209;DHT22;4639;48.862;9.188;2023-02-01T07:42:20;6.20;99.90
9209;DHT22;4639;48.862;9.188;2023-02-01T07:44:46;6.30;99.90
9209;DHT22;4639;48.862;9.188;2023-02-01T07:47:11;6.20;99.90
9209;DHT22;4639;48.862;9.188;2023-02-01T07:49:37;6.30;99.90
9209;DHT22;4639;48.862;9.188;2023-02-01T07:52:02;6.20;99.90
9209;DHT22;4639;48.862;9.188;2023-02-01T07:54:28;6.30;99.90
9209;DHT22;4639;48.862;9.188;2023-02-01T07:56:53;6.30;99.90
9209;DHT22;4639;48.862;9.188;2023-02-01T07:59:19;6.30;99.90
9209;DHT22;4639;48.862;9.188;2023-02-01T08:01:45;6.30;99.90
9209;DHT22;4639;48.862;9.188;2023-02-01T08:04:11;6.30;99.90
9209;DHT22;4639;48.862;9.188;2023-02-01T08:06:38;6.30;99.90
9209;DHT22;4639;48.862;9.188;2023-02-01T08:09:05;6.40;99.90
9209;DHT22;4639;48.862;9.188;2023-02-01T08:11:31;6.30;99.90
9209;DHT22;4639;48.862;9.188;2023-02-01T08:13:58;6.30;99.90
9209;DHT22;4639;48.862;9.188;2023-02-01T08:16:24;6.30;99.90
9209;DHT22;4639;48.862;9.188;2023-02-01T08:18:50;6.30;99.90
9209;DHT22;4639;48.862;9.188;2023-02-01T08:21:22;6.40;99.90
9209;DHT22;4639;48.862;9.188;2023-02-01T08:23:48;6.40;99.90
9209;DHT22;4639;48.862;9.188;2023-02-01T08:26:19;6.50;99.90
9209;DHT22;4639;48.862;9.188;2023-02-01T08:28:49;6.50;99.90
9209;DHT22;4639;48.862;9.188;2023-02-01T08:31:17;6.50;99.90
9209;DHT22;4639;48.862;9.188;2023-02-01T08:33:47;6.50;99.90
9209;DHT22;4639;48.862;9.188;2023-02-01T08:36:12;6.50;99.90
9209;DHT22;4639;48.862;9.188;2023-02-01T08:38:39;6.70;99.90
9209;DHT22;4639;48.862;9.188;2023-02-01T08:41:13;6.70;99.90
9209;DHT22;4639;48.862;9.188;2023-02-01T08:43:39;6.70;99.90
9209;DHT22;4639;48.862;9.188;2023-02-01T08:46:06;6.70;99.90
9209;DHT22;4639;48.862;9.188;2023-02-01T08:48:32;6.70;99.90
9209;DHT22;4639;48.862;9.188;2023-02-01T08:51:01;6.70;99.90
9209;DHT22;4639;48.862;9.188;2023-02-01T08:53:28;6.80;99.90
9209;DHT22;4639;48.862;9.188;2023-02-01T08:55:54;6.90;99.90
9209;DHT22;4639;48.862;9.188;2023-02-01T08:58:19;6.90;99.90
9209;DHT22;4639;48.862;9.188;2023-02-01T09:00:47;6.90;99.90
9209;DHT22;4639;48.862;9.188;2023-02-01T09:03:14;6.90;99.90
9209;DHT22;4639;48.862;9.188;2023-02-01T09:05:39;6.90;99.90
9209;DHT22;4639;48.862;9.188;2023-02-01T09:08:06;6.90;99.90
9209;DHT22;4639;48.862;9.188;2023-02-01T09:10:32;6.90;99.90
9209;DHT22;4639;48.862;9.188;2023-02-01T09:12:57;6.80;99.90
9209;DHT22;4639;48.862;9.188;2023-02-01T09:15:23;6.80;99.90
9209;DHT22;4639;48.862;9.188;2023-02-01T09:17:49;6.70;99.90
9209;DHT22;4639;48.862;9.188;2023-02-01T09:20:15;6.80;99.90
9209;DHT22;4639;48.862;9.188;2023-02-01T09:22:41;6.70;99.90
9209;DHT22;4639;48.862;9.188;2023-02-01T09:25:07;6.70;99.90
9209;DHT22;4639;48.862;9.188;2023-02-01T09:27:34;6.70;99.90
9209;DHT22;4639;48.862;9.188;2023-02-01T09:29:59;6.60;99.90
9209;DHT22;4639;48.862;9.188;2023-02-01T09:32:25;6.70;99.90
9209;DHT22;4639;48.862;9.188;2023-02-01T09:34:51;6.70;99.90
9209;DHT22;4639;48.862;9.188;2023-02-01T09:37:18;6.70;99.90
9209;DHT22;4639;48.862;9.188;2023-02-01T09:39:43;6.80;99.90
9209;DHT22;4639;48.862;9.188;2023-02-01T09:48:17;6.70;99.90
9209;DHT22;4639;48.862;9.188;2023-02-01T09:50:49;6.70;99.90
9209;DHT22;4639;48.862;9.188;2023-02-01T09:53:37;6.70;99.90
9209;DHT22;4639;48.862;9.188;2023-02-01T09:56:29;6.70;99.90
9209;DHT22;4639;48.862;9.188;2023-02-01T10:01:54;6.70;99.90
9209;DHT22;4639;48.862;9.188;2023-02-01T10:04:21;6.70;99.90
9209;DHT22;4639;48.862;9.188;2023-02-01T10:15:16;6.90;99.90
9209;DHT22;4639;48.862;9.188;2023-02-01T10:20:56;7.00;99.90
9209;DHT22;4639;48.862;9.188;2023-02-01T10:26:18;7.10;99.90
9209;DHT22;4639;48.862;9.188;2023-02-01T10:28:51;7.20;99.90
9209;DHT22;4639;48.862;9.188;2023-02-01T10:31:17;7.40;99.90
9209;DHT22;4639;48.862;9.188;2023-02-01T10:33:47;7.30;99.90
9209;DHT22;4639;48.862;9.188;2023-02-01T10:36:35;7.30;99.90
9209;DHT22;4639;48.862;9.188;2023-02-01T10:39:03;7.30;99.90
9209;DHT22;4639;48.862;9.188;2023-02-01T10:41:34;7.20;99.90
9209;DHT22;4639;48.862;9.188;2023-02-01T10:44:03;7.20;99.90
9209;DHT22;4639;48.862;9.188;2023-02-01T10:46:31;7.20;99.90
9209;DHT22;4639;48.862;9.188;2023-02-01T10:48:58;7.10;99.90
9209;DHT22;4639;48.862;9.188;2023-02-01T10:51:51;7.20;99.90
9209;DHT22;4639;48.862;9.188;2023-02-01T10:54:20;7.30;99.90
9209;DHT22;4639;48.862;9.188;2023-02-01T10:56:48;7.40;99.90
9209;DHT22;4639;48.862;9.188;2023-02-01T10:59:20;7.40;99.90
9209;DHT22;4639;48.862;9.188;2023-02-01T11:01:48;7.40;99.90
9209;DHT22;4639;48.862;9.188;2023-02-01T11:04:18;7.30;99.90
9209;DHT22;4639;48.862;9.188;2023-02-01T11:06:52;7.20;99.90
9209;DHT22;4639;48.862;9.188;2023-02-01T11:09:22;7.20;99.90
9209;DHT22;4639;48.862;9.188;2023-02-01T11:16:59;7.10;99.90
9209;DHT22;4639;48.862;9.188;2023-02-01T11:19:26;7.00;99.90
9209;DHT22;4639;48.862;9.188;2023-02-01T11:21:54;7.00;99.90
9209;DHT22;4639;48.862;9.188;2023-02-01T11:24:28;7.00;99.90
9209;DHT22;4639;48.862;9.188;2023-02-01T11:26:55;7.10;99.90
9209;DHT22;4639;48.862;9.188;2023-02-01T11:29:22;7.10;99.90
9209;DHT22;4639;48.862;9.188;2023-02-01T11:31:58;7.20;99.90
9209;DHT22;4639;48.862;9.188;2023-02-01T11:34:28;7.20;99.90
9209;DHT22;4639;48.862;9.188;2023-02-01T11:36:58;7.10;99.90
9209;DHT22;4639;48.862;9.188;2023-02-01T11:39:33;7.10;99.90
9209;DHT22;4639;48.862;9.188;2023-02-01T11:42:13;7.00;99.90
9209;DHT22;4639;48.862;9.188;2023-02-01T11:44:46;7.10;99.90
9209;DHT22;4639;48.862;9.188;2023-02-01T11:49:49;7.20;99.90
9209;DHT22;4639;48.862;9.188;2023-02-01T11:57:59;7.20;99.90
9209;DHT22;4639;48.862;9.188;2023-02-01T12:00:32;7.20;99.90
9209;DHT22;4639;48.862;9.188;2023-02-01T12:11:33;7.20;99.90
9209;DHT22;4639;48.862;9.188;2023-02-01T12:21:41;7.10;99.90
9209;DHT22;4639;48.862;9.188;2023-02-01T12:32:36;7.00;99.90
9209;DHT22;4639;48.862;9.188;2023-02-01T12:35:22;7.00;99.90
9209;DHT22;4639;48.862;9.188;2023-02-01T12:40:50;7.00;99.90
9209;DHT22;4639;48.862;9.188;2023-02-01T12:44:10;7.10;99.90
9209;DHT22;4639;48.862;9.188;2023-02-01T12:46:13;7.10;99.90
9209;DHT22;4639;48.862;9.188;2023-02-01T12:51:26;6.80;99.90
9209;DHT22;4639;48.862;9.188;2023-02-01T12:56:54;6.70;99.90
9209;DHT22;4639;48.862;9.188;2023-02-01T12:59:33;6.70;99.90
9209;DHT22;4639;48.862;9.188;2023-02-01T13:02:15;6.80;99.90
9209;DHT22;4639;48.862;9.188;2023-02-01T13:05:01;6.80;99.90
9209;DHT22;4639;48.862;9.188;2023-02-01T13:10:45;6.70;99.90
9209;DHT22;4639;48.862;9.188;2023-02-01T13:15:53;6.50;99.90
9209;DHT22;4639;48.862;9.188;2023-02-01T13:18:22;6.60;99.90
9209;DHT22;4639;48.862;9.188;2023-02-01T13:21:03;6.60;99.90
9209;DHT22;4639;48.862;9.188;2023-02-01T13:23:33;6.60;99.90
9209;DHT22;4639;48.862;9.188;2023-02-01T13:26:00;6.70;99.90
9209;DHT22;4639;48.862;9.188;2023-02-01T13:28:28;6.80;99.90
9209;DHT22;4639;48.862;9.188;2023-02-01T13:42:49;6.70;99.90
9209;DHT22;4639;48.862;9.188;2023-02-01T13:45:19;6.70;99.90
9209;DHT22;4639;48.862;9.188;2023-02-01T13:47:48;6.70;99.90
9209;DHT22;4639;48.862;9.188;2023-02-01T13:50:27;6.80;99.90
9209;DHT22;4639;48.862;9.188;2023-02-01T13:52:57;6.90;99.90
9209;DHT22;4639;48.862;9.188;2023-02-01T13:55:32;6.90;99.90
9209;DHT22;4639;48.862;9.188;2023-02-01T13:58:28;7.00;99.90
9209;DHT22;4639;48.862;9.188;2023-02-01T14:03:48;6.90;99.90
9209;DHT22;4639;48.862;9.188;2023-02-01T14:06:35;6.70;99.90
9209;DHT22;4639;48.862;9.188;2023-02-01T14:09:13;6.80;99.90
9209;DHT22;4639;48.862;9.188;2023-02-01T14:11:50;6.90;99.90
9209;DHT22;4639;48.862;9.188;2023-02-01T14:19:21;6.80;99.90
9209;DHT22;4639;48.862;9.188;2023-02-01T14:21:58;6.70;99.90
9209;DHT22;4639;48.862;9.188;2023-02-01T14:24:29;6.60;99.90
9209;DHT22;4639;48.862;9.188;2023-02-01T14:26:57;6.60;99.90
9209;DHT22;4639;48.862;9.188;2023-02-01T14:29:43;6.70;99.90
9209;DHT22;4639;48.862;9.188;2023-02-01T14:32:30;6.60;99.90
9209;DHT22;4639;48.862;9.188;2023-02-01T14:34:59;6.80;99.90
9209;DHT22;4639;48.862;9.188;2023-02-01T14:37:32;6.80;99.90
9209;DHT22;4639;48.862;9.188;2023-02-01T14:42:53;6.80;99.90
9209;DHT22;4639;48.862;9.188;2023-02-01T15:04:04;6.80;99.90
9209;DHT22;4639;48.862;9.188;2023-02-01T15:09:35;6.80;99.90
9209;DHT22;4639;48.862;9.188;2023-02-01T15:12:09;6.70;99.90
9209;DHT22;4639;48.862;9.188;2023-02-01T15:14:45;6.70;99.90
9209;DHT22;4639;48.862;9.188;2023-02-01T15:20:03;6.70;99.90
9209;DHT22;4639;48.862;9.188;2023-02-01T15:22:31;6.70;99.90
9209;DHT22;4639;48.862;9.188;2023-02-01T15:24:58;6.70;99.90
9209;DHT22;4639;48.862;9.188;2023-02-01T15:27:25;6.80;99.90
9209;DHT22;4639;48.862;9.188;2023-02-01T15:29:51;6.80;99.90
9209;DHT22;4639;48.862;9.188;2023-02-01T15:32:37;6.80;99.90
9209;DHT22;4639;48.862;9.188;2023-02-01T15:35:04;6.80;99.90
9209;DHT22;4639;48.862;9.188;2023-02-01T15:37:31;6.80;99.90
9209;DHT22;4639;48.862;9.188;2023-02-01T15:40:23;6.80;99.90
9209;DHT22;4639;48.862;9.188;2023-02-01T15:42:55;6.80;99.90
9209;DHT22;4639;48.862;9.188;2023-02-01T15:45:32;6.90;99.90
9209;DHT22;4639;48.862;9.188;2023-02-01T15:47:59;6.90;99.90
9209;DHT22;4639;48.862;9.188;2023-02-01T15:50:26;6.90;99.90
9209;DHT22;4639;48.862;9.188;2023-02-01T15:52:54;6.90;99.90
9209;DHT22;4639;48.862;9.188;2023-02-01T15:55:41;6.90;99.90
9209;DHT22;4639;48.862;9.188;2023-02-01T15:58:09;6.90;99.90
9209;DHT22;4639;48.862;9.188;2023-02-01T16:01:03;6.90;99.90
9209;DHT22;4639;48.862;9.188;2023-02-01T16:06:08;6.90;99.90
9209;DHT22;4639;48.862;9.188;2023-02-01T16:08:34;6.80;99.90
9209;DHT22;4639;48.862;9.188;2023-02-01T16:13:33;6.80;99.90
9209;DHT22;4639;48.862;9.188;2023-02-01T16:15:59;6.90;99.90
9209;DHT22;4639;48.862;9.188;2023-02-01T16:18:24;6.90;99.90
9209;DHT22;4639;48.862;9.188;2023-02-01T16:20:50;6.80;99.90
9209;DHT22;4639;48.862;9.188;2023-02-01T16:23:16;6.90;99.90
9209;DHT22;4639;48.862;9.188;2023-02-01T16:25:41;6.90;99.90
9209;DHT22;4639;48.862;9.188;2023-02-01T16:28:07;6.90;99.90
9209;DHT22;4639;48.862;9.188;2023-02-01T16:30:34;6.90;99.90
9209;DHT22;4639;48.862;9.188;2023-02-01T16:33:00;6.90;99.90
9209;DHT22;4639;48.862;9.188;2023-02-01T16:35:35;6.90;99.90
9209;DHT22;4639;48.862;9.188;2023-02-01T16:38:15;6.90;99.90
9209;DHT22;4639;48.862;9.188;2023-02-01T16:40:44;6.90;99.90
9209;DHT22;4639;48.862;9.188;2023-02-01T16:43:15;6.90;99.90
9209;DHT22;4639;48.862;9.188;2023-02-01T16:45:42;6.90;99.90
9209;DHT22;4639;48.862;9.188;2023-02-01T16:50:51;6.90;99.90
9209;DHT22;4639;48.862;9.188;2023-02-01T16:53:18;6.80;99.90
9209;DHT22;4639;48.862;9.188;2023-02-01T16:55:44;7.00;99.90
9209;DHT22;4639;48.862;9.188;2023-02-01T16:58:12;6.80;99.90
9209;DHT22;4639;48.862;9.188;2023-02-01T17:00:37;6.90;99.90
9209;DHT22;4639;48.862;9.188;2023-02-01T17:03:04;6.90;99.90
9209;DHT22;4639;48.862;9.188;2023-02-01T17:05:31;6.90;99.90
9209;DHT22;4639;48.862;9.188;2023-02-01T17:08:02;6.80;99.90
9209;DHT22;4639;48.862;9.188;2023-02-01T17:10:29;6.90;99.90
9209;DHT22;4639;48.862;9.188;2023-02-01T17:12:55;6.90;99.90
9209;DHT22;4639;48.862;9.188;2023-02-01T17:15:26;6.90;99.90
9209;DHT22;4639;48.862;9.188;2023-02-01T17:17:52;6.80;99.90
9209;DHT22;4639;48.862;9.188;2023-02-01T17:20:23;6.90;99.90
9209;DHT22;4639;48.862;9.188;2023-02-01T17:22:50;6.80;99.90
9209;DHT22;4639;48.862;9.188;2023-02-01T17:25:17;6.90;99.90
9209;DHT22;4639;48.862;9.188;2023-02-01T17:27:43;6.90;99.90
9209;DHT22;4639;48.862;9.188;2023-02-01T17:30:10;6.90;99.90
9209;DHT22;4639;48.862;9.188;2023-02-01T17:32:36;6.90;99.90
9209;DHT22;4639;48.862;9.188;2023-02-01T17:35:02;6.80;99.90
9209;DHT22;4639;48.862;9.188;2023-02-01T17:37:31;6.80;99.90
9209;DHT22;4639;48.862;9.188;2023-02-01T17:39:57;6.80;99.90
9209;DHT22;4639;48.862;9.188;2023-02-01T17:42:23;6.80;99.90
9209;DHT22;4639;48.862;9.188;2023-02-01T17:44:57;6.80;99.90
9209;DHT22;4639;48.862;9.188;2023-02-01T17:47:24;6.80;99.90
9209;DHT22;4639;48.862;9.188;2023-02-01T17:49:50;6.80;99.90
9209;DHT22;4639;48.862;9.188;2023-02-01T17:52:22;6.80;99.90
9209;DHT22;4639;48.862;9.188;2023-02-01T17:54:48;6.90;99.90
9209;DHT22;4639;48.862;9.188;2023-02-01T17:57:15;6.80;99.90
9209;DHT22;4639;48.862;9.188;2023-02-01T17:59:41;6.80;99.90
9209;DHT22;4639;48.862;9.188;2023-02-01T18:02:25;6.80;99.90
9209;DHT22;4639;48.862;9.188;2023-02-01T18:04:51;6.70;99.90
9209;DHT22;4639;48.862;9.188;2023-02-01T18:07:16;6.70;99.90
9209;DHT22;4639;48.862;9.188;2023-02-01T18:09:42;6.90;99.90
9209;DHT22;4639;48.862;9.188;2023-02-01T18:12:23;6.80;99.90
9209;DHT22;4639;48.862;9.188;2023-02-01T18:14:51;6.70;99.90
9209;DHT22;4639;48.862;9.188;2023-02-01T18:17:17;6.70;99.90
9209;DHT22;4639;48.862;9.188;2023-02-01T18:19:42;6.70;99.90
9209;DHT22;4639;48.862;9.188;2023-02-01T18:22:16;6.70;99.90
9209;DHT22;4639;48.862;9.188;2023-02-01T18:24:42;6.70;99.90
9209;DHT22;4639;48.862;9.188;2023-02-01T18:27:07;6.70;99.90
9209;DHT22;4639;48.862;9.188;2023-02-01T18:29:33;6.70;99.90
9209;DHT22;4639;48.862;9.188;2023-02-01T18:31:59;6.60;99.90
9209;DHT22;4639;48.862;9.188;2023-02-01T18:34:24;6.60;99.90
9209;DHT22;4639;48.862;9.188;2023-02-01T18:36:51;6.70;99.90
9209;DHT22;4639;48.862;9.188;2023-02-01T18:39:18;6.70;99.90
9209;DHT22;4639;48.862;9.188;2023-02-01T18:41:48;6.70;99.90
9209;DHT22;4639;48.862;9.188;2023-02-01T18:44:15;6.70;99.90
9209;DHT22;4639;48.862;9.188;2023-02-01T18:46:41;6.70;99.90
9209;DHT22;4639;48.862;9.188;2023-02-01T18:49:06;6.70;99.90
9209;DHT22;4639;48.862;9.188;2023-02-01T18:51:33;6.70;99.90
9209;DHT22;4639;48.862;9.188;2023-02-01T18:53:58;6.70;99.90
9209;DHT22;4639;48.862;9.188;2023-02-01T18:56:24;6.80;99.90
9209;DHT22;4639;48.862;9.188;2023-02-01T18:58:50;6.70;99.90
9209;DHT22;4639;48.862;9.188;2023-02-01T19:01:18;6.70;99.90
9209;DHT22;4639;48.862;9.188;2023-02-01T19:03:44;6.70;99.90
9209;DHT22;4639;48.862;9.188;2023-02-01T19:06:10;6.70;99.90
9209;DHT22;4639;48.862;9.188;2023-02-01T19:08:35;6.80;99.90
9209;DHT22;4639;48.862;9.188;2023-02-01T19:11:06;6.80;99.90
9209;DHT22;4639;48.862;9.188;2023-02-01T19:13:34;6.90;99.90
9209;DHT22;4639;48.862;9.188;2023-02-01T19:16:05;6.90;99.90
9209;DHT22;4639;48.862;9.188;2023-02-01T19:18:31;6.80;99.90
9209;DHT22;4639;48.862;9.188;2023-02-01T19:21:02;6.80;99.90
9209;DHT22;4639;48.862;9.188;2023-02-01T19:23:28;6.80;99.90